»·PEaware :: SWA213 KPDX-KMFR

SWA213 :: KPDX-KMFR

FLIGHT INFORMATION

Flight Status: Arrived
Operator:
Southwest Airlines
More flights by this operator :: More flights under this callsign
Pilot: Anonymous 17611 (17611)
Aircraft: BOEING 737-300
(B733)
More flights by this aircraft type
Origin: KPDX Portland Intl
United States
Destination: KMFR Rogue Valley Intl-Medford
United States
More flights between these airports :: More routes between these airports
Route: +PTLD1 EUG OED
File this flight plan on PilotEdge
Remarks:
Altitude:
(Current/Filed)
25,000ft
Speed:
(Current/Filed)
441kts
Departed: 08-Jan-18 04:50 PM
Arrived: 08-Jan-18 05:30 PM
Distance/Time
Traveled:
194nm/0:40
Distance/Time
To Go:
Arrived

Flight Plot

Page will automatically refresh every two minutes.

Flight plan parsing failed; only flown route is shown


Map Options




Map Legend


Flown Route
Filed Route
Departure Airport
Arrival Airport
Navaid (VOR, NDB)
Fix

Horizontal Profiles

Position Reports

Time Latitude Longitude Heading Altitude Ground
Speed
08-Jan-18 16:18 45.591001 -122.596292 11 24ft 0kts
08-Jan-18 16:19 45.591001 -122.596292 11 24ft 0kts
08-Jan-18 16:20 45.591001 -122.596292 11 24ft 0kts
08-Jan-18 16:21 45.591001 -122.596292 11 24ft 0kts
08-Jan-18 16:22 45.591001 -122.596292 11 24ft 0kts
08-Jan-18 16:23 45.591001 -122.596292 11 24ft 0kts
08-Jan-18 16:24 45.591001 -122.596292 11 24ft 0kts
08-Jan-18 16:25 45.591001 -122.596292 11 24ft 0kts
08-Jan-18 16:26 45.591001 -122.596292 11 24ft 0kts
08-Jan-18 16:27 45.591001 -122.596292 11 24ft 0kts
08-Jan-18 16:28 45.591001 -122.596292 11 24ft 0kts
08-Jan-18 16:29 45.591001 -122.596292 11 24ft 0kts
08-Jan-18 16:30 45.591001 -122.596292 11 24ft 0kts
08-Jan-18 16:31 45.591001 -122.596292 11 24ft 0kts
08-Jan-18 16:32 45.591001 -122.596292 11 24ft 0kts
08-Jan-18 16:33 45.591001 -122.596292 11 24ft 0kts
08-Jan-18 16:34 45.591001 -122.596292 11 24ft 0kts
08-Jan-18 16:35 45.591001 -122.596292 11 24ft 0kts
08-Jan-18 16:36 45.591001 -122.596292 11 23ft 0kts
08-Jan-18 16:37 45.591001 -122.596292 11 23ft 0kts
08-Jan-18 16:38 45.591001 -122.596292 11 23ft 0kts
08-Jan-18 16:39 45.591001 -122.596292 11 23ft 0kts
08-Jan-18 16:40 45.591001 -122.596292 11 23ft 0kts
08-Jan-18 16:41 45.591001 -122.596292 11 23ft 0kts
08-Jan-18 16:42 45.591001 -122.596292 11 23ft 0kts
08-Jan-18 16:43 45.591001 -122.596292 11 23ft 0kts
08-Jan-18 16:44 45.591001 -122.596292 11 23ft 0kts
08-Jan-18 16:45 45.591001 -122.596292 11 23ft 0kts
08-Jan-18 16:46 45.591001 -122.596292 11 23ft 0kts
08-Jan-18 16:47 45.590899 -122.596323 11 24ft 2kts
08-Jan-18 16:48 45.590308 -122.596422 332 24ft 2kts
08-Jan-18 16:49 45.590122 -122.596088 299 23ft 0kts
08-Jan-18 16:50 45.590122 -122.596088 299 23ft 0kts
08-Jan-18 16:51 45.590122 -122.596088 299 23ft 0kts
08-Jan-18 16:52 45.590883 -122.598105 299 23ft 12kts
08-Jan-18 16:53 45.593979 -122.596927 313 27ft 10kts
08-Jan-18 16:54 45.594358 -122.597429 336 27ft 0kts
08-Jan-18 16:55 45.594802 -122.596854 68 27ft 9kts
08-Jan-18 16:56 45.587003 -122.575769 117 254ft 157kts
08-Jan-18 16:57 45.563526 -122.517374 117 2145ft 209kts
08-Jan-18 16:58 45.513219 -122.480957 194 3882ft 265kts
08-Jan-18 16:59 45.440593 -122.507101 194 7539ft 281kts
08-Jan-18 17:00 45.366197 -122.526524 194 11259ft 292kts
08-Jan-18 17:01 45.285547 -122.551446 194 14828ft 309kts
08-Jan-18 17:02 45.200140 -122.577340 194 18267ft 324kts
08-Jan-18 17:03 45.114896 -122.618270 207 21282ft 334kts
08-Jan-18 17:04 45.028774 -122.673696 205 23988ft 350kts
08-Jan-18 17:05 44.932432 -122.688494 185 24848ft 353kts
08-Jan-18 17:06 44.835260 -122.696005 186 24767ft 384kts
08-Jan-18 17:07 44.723480 -122.704660 186 24795ft 411kts
08-Jan-18 17:08 44.609905 -122.713432 186 24799ft 410kts
08-Jan-18 17:09 44.496587 -122.722166 186 24793ft 410kts
08-Jan-18 17:10 44.383306 -122.730864 186 24790ft 410kts
08-Jan-18 17:11 44.269542 -122.739565 186 24789ft 411kts
08-Jan-18 17:12 44.155927 -122.748218 186 24790ft 410kts
08-Jan-18 17:13 44.042617 -122.756822 186 24789ft 410kts
08-Jan-18 17:14 43.929083 -122.765407 186 24790ft 411kts
08-Jan-18 17:15 43.816198 -122.773880 186 24791ft 410kts
08-Jan-18 17:16 43.702546 -122.782405 186 24528ft 411kts
08-Jan-18 17:17 43.594410 -122.790451 186 22512ft 372kts
08-Jan-18 17:18 43.496318 -122.797780 186 20402ft 347kts
08-Jan-18 17:19 43.403299 -122.804700 185 18704ft 342kts
08-Jan-18 17:20 43.309828 -122.811620 185 17014ft 335kts
08-Jan-18 17:21 43.233174 -122.817278 185 15601ft 329kts
08-Jan-18 17:22 43.128783 -122.824948 185 13453ft 321kts
08-Jan-18 17:23 43.055901 -122.830298 185 12089ft 312kts
08-Jan-18 17:24 42.955192 -122.838359 188 11998ft 315kts
08-Jan-18 17:25 42.871507 -122.851686 188 11420ft 310kts
08-Jan-18 17:26 42.806320 -122.871134 222 9788ft 270kts
08-Jan-18 17:27 42.777438 -122.977277 254 7806ft 252kts
08-Jan-18 17:28 42.741548 -123.025851 185 7141ft 233kts
08-Jan-18 17:29 42.678097 -123.014163 159 7100ft 238kts
08-Jan-18 17:30 42.614740 -122.988266 167 6468ft 238kts
08-Jan-18 17:31 42.552869 -122.966620 162 4672ft 227kts
08-Jan-18 17:32 42.502861 -122.940675 158 3773ft 159kts
08-Jan-18 17:33 42.464038 -122.920061 158 2977ft 148kts
08-Jan-18 17:34 42.426565 -122.900350 158 2189ft 143kts
08-Jan-18 17:35 42.390748 -122.881539 158 1421ft 133kts
08-Jan-18 17:36 42.368940 -122.870407 209 1322ft 17kts
08-Jan-18 17:37 42.368648 -122.873040 247 1320ft 3kts
08-Jan-18 17:38 42.368592 -122.873222 247 1320ft 0kts
08-Jan-18 17:39 42.368592 -122.873222 247 1320ft 0kts
08-Jan-18 17:40 42.368592 -122.873222 247 1320ft 0kts
08-Jan-18 17:41 42.368592 -122.873222 247 1320ft 0kts
08-Jan-18 17:42 42.368592 -122.873222 247 1320ft 0kts
08-Jan-18 17:43 42.368592 -122.873222 247 1320ft 0kts
08-Jan-18 17:44 42.368592 -122.873222 247 1320ft 0kts
08-Jan-18 17:45 42.368592 -122.873222 247 1320ft 0kts
08-Jan-18 17:46 42.368592 -122.873222 247 1320ft 0kts
08-Jan-18 17:47 42.368592 -122.873222 247 1320ft 0kts
08-Jan-18 17:48 42.368592 -122.873222 247 1320ft 0kts
08-Jan-18 17:49 42.368592 -122.873222 247 1320ft 0kts
08-Jan-18 17:50 42.368592 -122.873222 247 1320ft 0kts

Navigation Log

Ident Type
Flight plan parsing failed, navigation log unavailable